Laemchabang, Thailand

6:31 PM ICT on October 31, 2014 (GMT +0700)
Pattaya | Change Station
CLOSE
Current Station
Personal Weather Station
Location: Pattaya, CHONBURI
Elevation: 141 ft
Nearby Weather Stations

Elev 141 ft 12.93 °N, 100.91 °E | Updated 1 minute ago

Light Thunderstorms and Rain
Light Thunderstorm Rain
77.5 °F
Feels Like 79 °F
N
0.0
Wind Variable Wind from ENE
Gusts 2.0 mph

Today
High -- | Low -- °F
--% Chance of Precip.
Yesterday
High -- | Low -- °F
Precip. -- in
6:09 AM 5:50 PM
First Quarter, 54% visible
Pressure 29.77 in
Visibility 5.0 miles
Clouds Few 1800 ft
Scattered Clouds 3000 ft
Mostly Cloudy 11000 ft
Heat Index 79 °F
Dew Point 77 °F
Humidity 98%
Rainfall 2.25 in
Snow Depth Not available.
UV 0 out of 12
Pollen Not available.
Air Quality Not available.
Flu Activity Not available.
METAR VTBS 311100Z 12012KT 8000 -TSRA FEW018CB SCT030 BKN110 28/23 Q1008 RERA NOSIG

More Conditions Fewer Conditions

Pressure 29.77 in
Visibility 5.0 miles
Clouds Few 1800 ft
Scattered Clouds 3000 ft
Mostly Cloudy 11000 ft
Heat Index 79 °F
Dew Point 77 °F
Humidity 98%
Rainfall 2.25 in
Snow Depth Not available.
UV 0 out of 12
Pollen Not available.
Air Quality Not available.
Flu Activity Not available.
METAR VTBS 311100Z 12012KT 8000 -TSRA FEW018CB SCT030 BKN110 28/23 Q1008 RERA NOSIG

More Conditions Fewer Conditions

10-Day Weather Forecast

Almanac

Astronomy

Oct. 31, 2014 Rise Set
Actual Time
Civil Twilight
Nautical Twilight
Astronomical Twilight
Moon
Length of Visible Light
Length of Day
Tomorrow will be .
, % of the Moon is Illuminated

Today's Extremes

Country Highs Country Lows

Community

WunderPhotos

Upload Photos

1,766,581 photos uploaded!

WunderBlogs® & News

Nearby

Air Quality

  Air Quality AQ Index Pollutant
Not available.

Snow Depth

Station Depth Elevation

Earthquake Activity

City Distance Mag. Time & Date
Minimum magnitude displayed is 2.5.

Coastal Water Temperatures

Place Temperature

Nearby Weather Stations